createdAt,value
2018-09-30T00:00:56.708Z,2.03
2018-09-30T00:06:00.001Z,1.77
2018-09-30T00:11:03.200Z,1.40
2018-09-30T00:16:06.407Z,1.87
2018-09-30T00:21:09.736Z,1.47
2018-09-30T00:26:18.400Z,1.77
2018-09-30T00:31:21.628Z,1.73
2018-09-30T00:36:24.927Z,2.00
2018-09-30T00:41:28.076Z,1.37
2018-09-30T00:46:31.301Z,1.30
2018-09-30T00:51:34.516Z,1.63
2018-09-30T00:56:37.728Z,1.60
2018-09-30T01:01:41.072Z,1.20
2018-09-30T01:06:44.288Z,1.93
2018-09-30T01:11:47.467Z,2.10
2018-09-30T01:16:50.646Z,1.60
2018-09-30T01:21:53.812Z,2.13
2018-09-30T01:26:56.999Z,1.40
2018-09-30T01:32:00.211Z,1.10
2018-09-30T01:37:03.406Z,1.30
2018-09-30T01:42:06.619Z,1.63
2018-09-30T01:47:09.819Z,1.73
2018-09-30T01:52:24.419Z,2.00
2018-09-30T01:57:27.615Z,2.00
2018-09-30T02:02:30.840Z,2.93
2018-09-30T02:07:34.064Z,2.40
2018-09-30T02:12:37.259Z,2.63
2018-09-30T02:17:40.496Z,2.90
2018-09-30T02:22:43.682Z,3.37
2018-09-30T02:27:46.879Z,2.40
2018-09-30T02:32:50.080Z,2.30
2018-09-30T02:37:53.284Z,2.23
2018-09-30T02:42:56.512Z,2.53
2018-09-30T02:47:59.730Z,2.47
2018-09-30T02:53:06.611Z,2.53
2018-09-30T02:58:09.812Z,3.30
2018-09-30T03:03:13.050Z,2.37
2018-09-30T03:08:21.512Z,1.90
2018-09-30T03:13:24.737Z,2.30
2018-09-30T03:18:27.926Z,2.63
2018-09-30T03:23:31.123Z,1.67
2018-09-30T03:28:34.346Z,1.90
2018-09-30T03:33:37.548Z,2.67
2018-09-30T03:38:40.780Z,1.97
2018-09-30T03:43:44.003Z,2.43
2018-09-30T03:48:47.197Z,1.77
2018-09-30T03:53:50.498Z,1.90
2018-09-30T03:58:53.644Z,1.67
2018-09-30T04:03:56.845Z,1.90
2018-09-30T04:09:00.041Z,1.93
2018-09-30T04:14:03.231Z,2.13
2018-09-30T04:19:06.439Z,1.87
2018-09-30T04:24:10.619Z,1.40
2018-09-30T04:29:13.823Z,2.10
2018-09-30T04:34:17.028Z,1.70
2018-09-30T04:39:20.236Z,2.50
2018-09-30T04:44:23.479Z,1.73
2018-09-30T04:49:26.679Z,1.80
2018-09-30T04:54:29.887Z,1.50
2018-09-30T04:59:33.268Z,2.10
2018-09-30T05:04:36.467Z,1.70
2018-09-30T05:09:39.675Z,1.40
2018-09-30T05:14:42.901Z,1.57
2018-09-30T05:19:46.108Z,1.63
2018-09-30T05:24:49.320Z,2.13
2018-09-30T05:29:52.524Z,1.70
2018-09-30T05:34:55.852Z,2.17
2018-09-30T05:39:59.060Z,1.50
2018-09-30T05:45:02.285Z,1.87
2018-09-30T05:50:05.484Z,1.80
2018-09-30T05:55:08.674Z,1.80
2018-09-30T06:00:11.856Z,1.63
2018-09-30T06:05:15.048Z,1.40
2018-09-30T06:10:18.237Z,2.00
2018-09-30T06:15:21.444Z,1.23
2018-09-30T06:20:24.643Z,1.80
2018-09-30T06:25:27.835Z,2.17
2018-09-30T06:30:31.049Z,2.30
2018-09-30T06:35:34.236Z,1.70
2018-09-30T06:40:37.440Z,1.50
2018-09-30T06:45:40.639Z,2.00
2018-09-30T06:50:43.967Z,2.20
2018-09-30T06:55:47.072Z,1.60
2018-09-30T07:00:50.284Z,2.10
2018-09-30T07:05:53.495Z,1.67
2018-09-30T07:10:56.857Z,1.90
2018-09-30T07:15:59.976Z,1.87
2018-09-30T07:21:03.180Z,2.47
2018-09-30T07:26:06.360Z,1.43
2018-09-30T07:31:09.602Z,1.67
2018-09-30T07:36:12.804Z,1.70
2018-09-30T07:41:16.079Z,1.70
2018-09-30T07:46:19.296Z,2.00
2018-09-30T07:51:22.542Z,1.90
2018-09-30T07:56:25.919Z,1.80
2018-09-30T08:01:29.146Z,2.00
2018-09-30T08:06:32.460Z,2.07
2018-09-30T08:11:35.619Z,1.80
2018-09-30T08:16:38.949Z,1.57
2018-09-30T08:21:42.071Z,1.63
2018-09-30T08:26:45.303Z,1.90
2018-09-30T08:31:48.523Z,1.90
2018-09-30T08:36:51.743Z,1.40
2018-09-30T08:41:55.040Z,1.80
2018-09-30T08:46:58.233Z,1.80
2018-09-30T08:52:01.432Z,1.70
2018-09-30T08:57:04.728Z,1.40
2018-09-30T09:02:07.938Z,2.63
2018-09-30T09:07:11.401Z,2.00
2018-09-30T09:12:14.625Z,1.97
2018-09-30T09:17:17.849Z,2.30
2018-09-30T09:22:21.220Z,2.10
2018-09-30T09:27:24.424Z,1.97
2018-09-30T09:32:27.698Z,2.20
2018-09-30T09:37:31.130Z,2.73
2018-09-30T09:42:34.433Z,2.07
2018-09-30T09:47:37.713Z,2.70
2018-09-30T09:52:41.117Z,1.90
2018-09-30T09:57:44.344Z,1.67
2018-09-30T10:02:47.644Z,2.87
2018-09-30T10:07:51.040Z,1.60
2018-09-30T10:12:54.329Z,2.67
2018-09-30T10:17:57.699Z,2.00
2018-09-30T10:23:00.947Z,2.00
2018-09-30T10:28:04.204Z,3.10
2018-09-30T10:33:07.490Z,1.90
2018-09-30T10:38:10.750Z,1.77
2018-09-30T10:43:14.066Z,1.53
2018-09-30T10:48:17.406Z,2.17
2018-09-30T10:53:20.651Z,1.73
2018-09-30T10:58:23.908Z,2.10
2018-09-30T11:03:27.216Z,2.23
2018-09-30T11:08:30.444Z,2.43
2018-09-30T11:13:33.696Z,2.30
2018-09-30T11:18:37.000Z,2.17
2018-09-30T11:23:40.276Z,2.47
2018-09-30T11:28:43.529Z,2.20
2018-09-30T11:33:46.827Z,2.10
2018-09-30T11:38:50.913Z,1.90
2018-09-30T11:43:54.197Z,1.70
2018-09-30T11:48:57.564Z,2.00
2018-09-30T11:54:00.823Z,2.03
2018-09-30T11:59:04.077Z,2.30
2018-09-30T12:04:07.545Z,2.67
2018-09-30T12:09:10.823Z,2.27
2018-09-30T12:14:14.074Z,3.40
2018-09-30T12:19:17.320Z,2.20
2018-09-30T12:24:20.560Z,2.73
2018-09-30T12:29:23.866Z,2.50
2018-09-30T12:34:27.172Z,3.03
2018-09-30T12:39:30.461Z,2.70
2018-09-30T12:44:33.731Z,2.87
2018-09-30T12:49:37.012Z,2.87
2018-09-30T12:54:40.308Z,2.80
2018-09-30T12:59:43.609Z,3.10
2018-09-30T13:04:46.942Z,2.97
2018-09-30T13:09:50.297Z,2.67
2018-09-30T13:14:53.515Z,2.70
2018-09-30T13:19:56.779Z,3.23
2018-09-30T13:25:00.113Z,2.80
2018-09-30T13:30:04.464Z,2.93
2018-09-30T13:35:08.341Z,3.17
2018-09-30T13:40:11.786Z,2.87
2018-09-30T13:45:15.560Z,3.10
2018-09-30T13:50:18.819Z,2.90
2018-09-30T13:55:22.100Z,2.50
2018-09-30T14:00:25.346Z,2.83
2018-09-30T14:05:28.859Z,3.23
2018-09-30T14:10:32.103Z,3.03
2018-09-30T14:15:35.340Z,2.63
2018-09-30T14:20:38.579Z,2.90
2018-09-30T14:25:41.848Z,3.00
2018-09-30T14:30:45.075Z,1.73
2018-09-30T14:35:48.320Z,2.40
2018-09-30T14:40:51.614Z,2.10
2018-09-30T14:45:54.869Z,1.80
2018-09-30T14:51:01.240Z,1.70
2018-09-30T14:56:04.544Z,2.03
2018-09-30T15:01:07.779Z,1.70
2018-09-30T15:06:11.110Z,2.90
2018-09-30T15:11:14.290Z,1.90
2018-09-30T15:16:17.557Z,2.43
2018-09-30T15:21:20.871Z,1.43
2018-09-30T15:26:24.158Z,2.20
2018-09-30T15:31:27.404Z,2.50
2018-09-30T15:36:30.723Z,2.93
2018-09-30T15:41:33.940Z,2.10
2018-09-30T15:46:37.157Z,2.60
2018-09-30T15:51:40.384Z,1.90
2018-09-30T15:56:43.584Z,3.30
2018-09-30T16:01:46.771Z,2.73
2018-09-30T16:06:49.987Z,2.00
2018-09-30T16:11:53.196Z,2.60
2018-09-30T16:16:56.400Z,2.37
2018-09-30T16:21:59.618Z,2.50
2018-09-30T16:27:02.803Z,2.10
2018-09-30T16:32:06.009Z,1.60
2018-09-30T16:37:09.235Z,2.40
2018-09-30T16:42:12.469Z,1.93
2018-09-30T16:47:15.717Z,2.37
2018-09-30T16:52:18.956Z,2.30
2018-09-30T16:57:22.199Z,1.80
2018-09-30T17:02:25.441Z,1.70
2018-09-30T17:07:28.675Z,2.40
2018-09-30T17:12:31.903Z,1.80
2018-09-30T17:17:35.140Z,2.27
2018-09-30T17:22:38.368Z,2.30
2018-09-30T17:27:41.603Z,1.73
2018-09-30T17:32:44.896Z,1.93
2018-09-30T17:37:48.116Z,2.63
2018-09-30T17:42:51.352Z,2.47
2018-09-30T17:47:54.595Z,2.13
2018-09-30T17:52:57.824Z,2.00
2018-09-30T17:58:01.047Z,3.20
2018-09-30T18:03:04.239Z,2.23
2018-09-30T18:08:07.448Z,2.13
2018-09-30T18:13:10.732Z,1.73
2018-09-30T18:18:13.945Z,1.90
2018-09-30T18:23:17.139Z,2.17
2018-09-30T18:28:20.352Z,2.17
2018-09-30T18:33:23.552Z,2.20
2018-09-30T18:38:26.764Z,2.23
2018-09-30T18:43:29.979Z,1.63
2018-09-30T18:48:33.184Z,2.00
2018-09-30T18:53:36.412Z,2.53
2018-09-30T18:58:39.611Z,2.50
2018-09-30T19:03:42.807Z,1.97
2018-09-30T19:08:46.037Z,2.30
2018-09-30T19:13:49.250Z,2.80
2018-09-30T19:18:52.475Z,2.20
2018-09-30T19:23:55.700Z,2.67
2018-09-30T19:28:58.928Z,2.43
2018-09-30T19:34:02.199Z,2.90
2018-09-30T19:39:08.013Z,3.20
2018-09-30T19:44:11.243Z,3.20
2018-09-30T19:49:14.490Z,3.07
2018-09-30T19:54:17.727Z,2.70
2018-09-30T19:59:21.041Z,2.80
2018-09-30T20:04:24.283Z,2.37
2018-09-30T20:09:27.542Z,3.77
2018-09-30T20:14:30.705Z,3.37
2018-09-30T20:19:33.940Z,3.23
2018-09-30T20:24:37.200Z,3.80
2018-09-30T20:29:40.436Z,3.70
2018-09-30T20:34:43.680Z,3.40
2018-09-30T20:39:46.924Z,2.90
2018-09-30T20:44:50.248Z,3.20
2018-09-30T20:49:53.500Z,3.03
2018-09-30T20:54:56.751Z,3.77
2018-09-30T20:59:59.977Z,3.03
2018-09-30T21:05:18.907Z,3.50
2018-09-30T21:10:22.071Z,3.63
2018-09-30T21:15:25.279Z,2.90
2018-09-30T21:20:28.608Z,3.90
2018-09-30T21:25:31.824Z,3.00
2018-09-30T21:30:35.048Z,3.37
2018-09-30T21:35:38.295Z,3.30
2018-09-30T21:40:41.507Z,3.30
2018-09-30T21:45:45.058Z,3.37
2018-09-30T21:50:48.271Z,3.40
2018-09-30T21:55:51.495Z,3.43
2018-09-30T22:00:56.604Z,3.33
2018-09-30T22:05:59.892Z,3.60
2018-09-30T22:11:03.124Z,3.17
2018-09-30T22:16:06.369Z,3.40
2018-09-30T22:21:09.615Z,3.70
2018-09-30T22:26:12.880Z,2.70
2018-09-30T22:31:16.112Z,2.73
2018-09-30T22:36:19.352Z,4.00
2018-09-30T22:41:22.625Z,4.50
2018-09-30T22:46:25.833Z,3.30
2018-09-30T22:51:29.071Z,3.47
2018-09-30T22:56:32.356Z,3.77
2018-09-30T23:01:35.577Z,4.13
2018-09-30T23:06:38.788Z,3.67
2018-09-30T23:11:42.017Z,3.60
2018-09-30T23:16:45.247Z,3.60
2018-09-30T23:21:48.480Z,3.80
2018-09-30T23:26:51.698Z,4.47
2018-09-30T23:31:54.935Z,3.67
2018-09-30T23:36:58.160Z,3.80
2018-09-30T23:42:01.395Z,4.03
2018-09-30T23:47:04.647Z,3.77
2018-09-30T23:52:07.848Z,3.97
2018-09-30T23:57:11.060Z,4.27
